createdAt,value
2023-03-27T00:02:20.231Z,99895.16
2023-03-27T00:05:21.955Z,99902.47
2023-03-27T00:08:24.678Z,99914.13
2023-03-27T00:11:26.499Z,99912.63
2023-03-27T00:14:28.506Z,99918.22
2023-03-27T00:17:30.199Z,99925.31
2023-03-27T00:20:42.437Z,99932.28
2023-03-27T00:23:43.980Z,99941.44
2023-03-27T00:26:45.485Z,99937.88
2023-03-27T00:29:47.055Z,99940.59
2023-03-27T00:32:49.359Z,99948.53
2023-03-27T00:35:51.233Z,99952.28
2023-03-27T00:38:53.112Z,99958.69
2023-03-27T00:41:55.502Z,99967.69
2023-03-27T00:44:57.393Z,99977.66
2023-03-27T00:48:06.653Z,99980.22
2023-03-27T00:51:09.083Z,99987.66
2023-03-27T00:54:12.574Z,99981.56
2023-03-27T00:57:19.171Z,99987.66
2023-03-27T01:00:21.865Z,99995.97
2023-03-27T01:03:29.413Z,99989.03
2023-03-27T01:06:31.777Z,99996.28
2023-03-27T01:09:34.264Z,99991.91
2023-03-27T01:12:54.027Z,100008.00
2023-03-27T01:16:02.474Z,100000.88
2023-03-27T01:19:16.610Z,100006.28
2023-03-27T01:22:45.994Z,100013.56
2023-03-27T01:26:07.197Z,100020.88
2023-03-27T01:29:14.927Z,100023.03
2023-03-27T01:32:31.602Z,100025.59
2023-03-27T01:35:39.143Z,100024.91
2023-03-27T01:39:02.738Z,100035.75
2023-03-27T01:42:06.241Z,100037.97
2023-03-27T01:45:18.437Z,100043.19
2023-03-27T01:48:42.611Z,100041.50
2023-03-27T01:51:49.986Z,100037.13
2023-03-27T01:54:58.284Z,100040.66
2023-03-27T01:58:05.097Z,100036.44
2023-03-27T02:01:11.056Z,100043.53
2023-03-27T02:04:18.302Z,100051.50
2023-03-27T02:07:28.172Z,100050.81
2023-03-27T02:10:37.074Z,100053.53
2023-03-27T02:13:53.139Z,100054.56
2023-03-27T02:17:03.587Z,100069.09
2023-03-27T02:20:12.823Z,100071.81
2023-03-27T02:23:14.551Z,100076.38
2023-03-27T02:26:16.413Z,100086.38
2023-03-27T02:29:39.231Z,100075.53
2023-03-27T02:32:56.713Z,100080.97
2023-03-27T02:36:21.023Z,100101.78
2023-03-27T02:39:39.508Z,100101.09
2023-03-27T02:43:03.970Z,100103.81
2023-03-27T02:46:31.105Z,100109.38
2023-03-27T02:49:41.770Z,100111.41
2023-03-27T02:52:51.151Z,100118.69
2023-03-27T02:55:57.172Z,100110.75
2023-03-27T02:59:13.137Z,100118.88
2023-03-27T03:02:24.689Z,100120.69
2023-03-27T03:05:32.512Z,100120.56
2023-03-27T03:08:38.178Z,100129.38
2023-03-27T03:11:54.336Z,100130.72
2023-03-27T03:14:56.594Z,100134.31
2023-03-27T03:17:58.104Z,100136.69
2023-03-27T03:21:00.024Z,100138.03
2023-03-27T03:24:02.846Z,100140.44
2023-03-27T03:27:05.705Z,100146.22
2023-03-27T03:30:17.536Z,100144.19
2023-03-27T03:33:42.385Z,100148.44
2023-03-27T03:36:45.082Z,100148.13
2023-03-27T03:39:46.963Z,100162.34
2023-03-27T03:42:51.764Z,100166.44
2023-03-27T03:45:58.361Z,100175.41
2023-03-27T03:49:01.061Z,100173.22
2023-03-27T03:52:03.374Z,100176.59
2023-03-27T03:55:09.815Z,100179.16
2023-03-27T03:58:12.119Z,100185.44
2023-03-27T04:01:14.629Z,100186.28
2023-03-27T04:04:23.151Z,100188.16
2023-03-27T04:07:40.974Z,100188.00
2023-03-27T04:11:02.657Z,100200.72
2023-03-27T04:14:20.900Z,100200.72
2023-03-27T04:17:26.482Z,100202.53
2023-03-27T04:20:34.603Z,100207.31
2023-03-27T04:23:38.307Z,100211.84
2023-03-27T04:26:39.912Z,100212.03
2023-03-27T04:30:02.240Z,100229.28
2023-03-27T04:33:23.058Z,100228.63
2023-03-27T04:36:44.953Z,100231.50
2023-03-27T04:39:49.754Z,100235.38
2023-03-27T04:42:55.847Z,100240.94
2023-03-27T04:45:57.599Z,100243.84
2023-03-27T04:48:59.542Z,100251.13
2023-03-27T04:52:21.339Z,100249.41
2023-03-27T04:55:25.727Z,100254.69
2023-03-27T04:58:28.338Z,100254.69
2023-03-27T05:01:31.432Z,100260.09
2023-03-27T05:04:49.074Z,100258.94
2023-03-27T05:07:54.101Z,100266.88
2023-03-27T05:10:58.854Z,100267.75
2023-03-27T05:14:01.707Z,100276.75
2023-03-27T05:17:07.617Z,100271.13
2023-03-27T05:20:16.973Z,100280.81
2023-03-27T05:23:18.781Z,100283.38
2023-03-27T05:26:20.783Z,100289.50
2023-03-27T05:29:26.727Z,100289.31
2023-03-27T05:32:36.602Z,100294.59
2023-03-27T05:35:52.568Z,100305.09
2023-03-27T05:38:54.556Z,100302.38
2023-03-27T05:42:05.554Z,100308.84
2023-03-27T05:45:07.473Z,100312.25
2023-03-27T05:48:10.451Z,100317.47
2023-03-27T05:51:15.894Z,100319.34
2023-03-27T05:54:17.501Z,100314.97
2023-03-27T05:57:32.936Z,100315.94
2023-03-27T06:00:36.438Z,100323.09
2023-03-27T06:03:38.651Z,100323.25
2023-03-27T06:06:47.106Z,100326.28
2023-03-27T06:09:49.181Z,100333.72
2023-03-27T06:13:20.431Z,100341.16
2023-03-27T06:16:41.519Z,100351.31
2023-03-27T06:20:11.338Z,100355.88
2023-03-27T06:23:13.312Z,100352.47
2023-03-27T06:26:15.772Z,100353.50
2023-03-27T06:29:18.194Z,100360.78
2023-03-27T06:32:22.580Z,100353.81
2023-03-27T06:35:28.948Z,100363.81
2023-03-27T06:38:37.954Z,100369.53
2023-03-27T06:41:40.085Z,100374.44
2023-03-27T06:44:54.911Z,100373.91
2023-03-27T06:48:21.488Z,100381.34
2023-03-27T06:51:26.967Z,100379.81
2023-03-27T06:54:29.261Z,100384.53
2023-03-27T06:57:31.019Z,100390.97
2023-03-27T07:00:37.369Z,100395.50
2023-03-27T07:03:53.430Z,100400.41
2023-03-27T07:07:24.740Z,100397.00
2023-03-27T07:10:26.651Z,100408.00
2023-03-27T07:13:29.803Z,100410.00
2023-03-27T07:16:34.515Z,100412.72
2023-03-27T07:19:36.151Z,100424.56
2023-03-27T07:22:45.146Z,100430.13
2023-03-27T07:25:59.848Z,100437.56
2023-03-27T07:29:21.576Z,100436.88
2023-03-27T07:32:36.739Z,100439.75
2023-03-27T07:35:45.167Z,100446.00
2023-03-27T07:39:06.929Z,100443.44
2023-03-27T07:42:11.825Z,100449.88
2023-03-27T07:45:41.145Z,100454.47
2023-03-27T07:48:42.663Z,100455.31
2023-03-27T07:51:51.292Z,100453.75
2023-03-27T07:54:53.051Z,100455.75
2023-03-27T07:58:02.264Z,100461.31
2023-03-27T08:01:07.799Z,100459.63
2023-03-27T08:04:10.890Z,100465.03
2023-03-27T08:07:15.027Z,100463.19
2023-03-27T08:10:17.806Z,100467.63
2023-03-27T08:13:29.588Z,100473.03
2023-03-27T08:16:36.977Z,100472.84
2023-03-27T08:19:38.591Z,100480.13
2023-03-27T08:22:41.347Z,100481.16
2023-03-27T08:26:09.456Z,100482.00
2023-03-27T08:29:20.467Z,100483.00
2023-03-27T08:32:22.821Z,100486.56
2023-03-27T08:35:27.097Z,100479.44
2023-03-27T08:38:29.228Z,100490.28
2023-03-27T08:41:49.891Z,100492.84
2023-03-27T08:44:57.662Z,100500.97
2023-03-27T08:48:21.861Z,100499.25
2023-03-27T08:51:30.472Z,100499.25
2023-03-27T08:54:33.902Z,100493.81
2023-03-27T08:57:36.217Z,100501.81
2023-03-27T09:00:47.520Z,100513.34
2023-03-27T09:04:15.242Z,100513.19
2023-03-27T09:07:24.534Z,100518.59
2023-03-27T09:10:49.449Z,100514.75
2023-03-27T09:14:40.370Z,100518.31
2023-03-27T09:17:51.730Z,100523.75
2023-03-27T09:20:58.505Z,100514.59
2023-03-27T09:24:06.232Z,100520.88
2023-03-27T09:27:49.312Z,100519.00
2023-03-27T09:31:20.942Z,100515.44
2023-03-27T09:34:27.488Z,100521.03
2023-03-27T09:37:29.608Z,100528.28
2023-03-27T09:40:43.741Z,100524.59
2023-03-27T09:43:55.615Z,100531.00
2023-03-27T09:47:06.806Z,100535.56
2023-03-27T09:50:32.578Z,100537.44
2023-03-27T09:53:58.143Z,100539.28
2023-03-27T09:57:12.594Z,100547.56
2023-03-27T10:00:30.768Z,100545.69
2023-03-27T10:03:59.797Z,100542.16
2023-03-27T10:07:23.548Z,100541.28
2023-03-27T10:10:45.777Z,100535.16
2023-03-27T10:14:02.135Z,100526.19
2023-03-27T10:17:05.128Z,100531.63
2023-03-27T10:20:14.093Z,100536.91
2023-03-27T10:23:29.004Z,100537.88
2023-03-27T10:26:32.184Z,100529.03
2023-03-27T10:29:36.489Z,100527.34
2023-03-27T10:32:45.075Z,100538.19
2023-03-27T10:36:09.542Z,100537.34
2023-03-27T10:39:13.935Z,100534.63
2023-03-27T10:42:32.933Z,100543.75
2023-03-27T10:45:45.714Z,100538.34
2023-03-27T10:49:06.514Z,100552.91
2023-03-27T10:52:19.473Z,100564.88
2023-03-27T10:56:10.644Z,100592.81
2023-03-27T10:59:31.159Z,100609.06
2023-03-27T11:03:00.270Z,100597.38
2023-03-27T11:06:07.747Z,100591.13
2023-03-27T11:09:23.225Z,100575.84
2023-03-27T11:12:35.310Z,100580.44
2023-03-27T11:15:43.626Z,100580.13
2023-03-27T11:19:11.021Z,100575.41
2023-03-27T11:22:47.999Z,100573.41
2023-03-27T11:26:11.003Z,100575.28
2023-03-27T11:29:30.135Z,100608.31
2023-03-27T11:32:40.733Z,100626.31
2023-03-27T11:35:51.902Z,100623.59
2023-03-27T11:39:21.214Z,100630.72
2023-03-27T11:42:27.821Z,100643.09
2023-03-27T11:46:07.984Z,100641.25
2023-03-27T11:49:31.142Z,100652.94
2023-03-27T11:52:47.789Z,100643.81
2023-03-27T11:56:19.429Z,100640.94
2023-03-27T11:59:50.068Z,100630.97
2023-03-27T12:03:17.095Z,100635.38
2023-03-27T12:06:30.554Z,100647.91
2023-03-27T12:09:57.019Z,100646.06
2023-03-27T12:13:38.643Z,100644.34
2023-03-27T12:17:15.849Z,100648.63
2023-03-27T12:20:58.775Z,100639.78
2023-03-27T12:24:27.588Z,100646.75
2023-03-27T12:28:06.425Z,100647.63
2023-03-27T12:31:55.692Z,100647.47
2023-03-27T12:35:03.497Z,100644.75
2023-03-27T12:38:22.939Z,100649.03
2023-03-27T12:41:26.005Z,100649.03
2023-03-27T12:45:02.913Z,100653.47
2023-03-27T12:48:10.543Z,100646.19
2023-03-27T12:51:19.822Z,100652.56
2023-03-27T12:54:31.307Z,100667.69
2023-03-27T12:57:45.099Z,100672.13
2023-03-27T13:01:00.932Z,100677.53
2023-03-27T13:04:27.482Z,100701.75
2023-03-27T13:07:39.136Z,100718.03
2023-03-27T13:11:22.070Z,100715.31
2023-03-27T13:14:55.763Z,100708.91
2023-03-27T13:18:18.528Z,100695.38
2023-03-27T13:21:57.454Z,100680.78
2023-03-27T13:25:20.462Z,100672.66
2023-03-27T13:28:38.087Z,100664.53
2023-03-27T13:31:44.526Z,100653.84
2023-03-27T13:35:21.373Z,100657.25
2023-03-27T13:38:44.862Z,100667.09
2023-03-27T13:41:46.938Z,100669.09
2023-03-27T13:45:07.417Z,100672.53
2023-03-27T13:48:20.927Z,100670.81
2023-03-27T13:51:22.470Z,100680.66
2023-03-27T13:54:42.205Z,100676.94
2023-03-27T13:58:12.361Z,100685.78
2023-03-27T14:01:34.155Z,100679.50
2023-03-27T14:04:53.146Z,100700.16
2023-03-27T14:08:19.564Z,100688.47
2023-03-27T14:12:19.979Z,100702.75
2023-03-27T14:15:53.683Z,100707.31
2023-03-27T14:19:43.593Z,100735.28
2023-03-27T14:23:03.496Z,100737.97
2023-03-27T14:26:21.615Z,100754.25
2023-03-27T14:29:23.422Z,100764.06
2023-03-27T14:32:26.255Z,100769.50
2023-03-27T14:35:54.657Z,100788.47
2023-03-27T14:39:02.323Z,100744.97
2023-03-27T14:42:16.461Z,100714.97
2023-03-27T14:45:23.832Z,100726.53
2023-03-27T14:48:30.906Z,100723.38
2023-03-27T14:51:36.945Z,100714.78
2023-03-27T14:54:54.388Z,100723.47
2023-03-27T14:58:02.151Z,100731.28
2023-03-27T15:01:04.908Z,100752.84
2023-03-27T15:04:07.386Z,100755.97
2023-03-27T15:07:20.249Z,100734.13
2023-03-27T15:10:36.353Z,100730.25
2023-03-27T15:13:40.945Z,100741.78
2023-03-27T15:17:06.737Z,100733.50
2023-03-27T15:20:14.255Z,100729.78
2023-03-27T15:23:20.215Z,100729.66
2023-03-27T15:26:24.859Z,100731.19
2023-03-27T15:29:39.070Z,100729.34
2023-03-27T15:32:44.502Z,100733.63
2023-03-27T15:35:47.831Z,100740.63
2023-03-27T15:38:50.979Z,100743.00
2023-03-27T15:41:53.139Z,100741.19
2023-03-27T15:44:57.741Z,100743.59
2023-03-27T15:48:05.458Z,100747.84
2023-03-27T15:51:09.498Z,100758.41
2023-03-27T15:54:28.146Z,100748.25
2023-03-27T15:57:29.684Z,100755.94
2023-03-27T16:00:31.183Z,100752.19
2023-03-27T16:03:34.336Z,100759.19
2023-03-27T16:06:40.853Z,100763.59
2023-03-27T16:09:49.277Z,100758.16
2023-03-27T16:12:52.435Z,100760.75
2023-03-27T16:16:04.837Z,100770.75
2023-03-27T16:19:11.310Z,100765.31
2023-03-27T16:22:13.220Z,100759.72
2023-03-27T16:25:15.200Z,100768.44
2023-03-27T16:28:17.600Z,100769.28
2023-03-27T16:31:19.427Z,100763.13
2023-03-27T16:34:22.441Z,100764.31
2023-03-27T16:37:25.697Z,100766.31
2023-03-27T16:40:27.328Z,100768.34
2023-03-27T16:43:28.765Z,100771.19
2023-03-27T16:46:31.223Z,100759.63
2023-03-27T16:49:32.692Z,100748.94
2023-03-27T16:52:34.280Z,100758.94
2023-03-27T16:55:35.722Z,100756.22
2023-03-27T16:58:37.548Z,100760.97
2023-03-27T17:01:38.945Z,100760.97
2023-03-27T17:04:40.685Z,100775.69
2023-03-27T17:07:42.099Z,100778.41
2023-03-27T17:10:43.917Z,100779.41
2023-03-27T17:13:45.298Z,100786.69
2023-03-27T17:16:48.653Z,100790.41
2023-03-27T17:19:50.679Z,100805.69
2023-03-27T17:22:52.051Z,100805.69
2023-03-27T17:25:53.418Z,100806.69
2023-03-27T17:28:54.779Z,100819.38
2023-03-27T17:32:00.730Z,100829.25
2023-03-27T17:35:04.360Z,100836.38
2023-03-27T17:38:06.370Z,100843.81
2023-03-27T17:41:08.520Z,100842.94
2023-03-27T17:44:10.862Z,100852.97
2023-03-27T17:47:12.916Z,100853.97
2023-03-27T17:50:14.324Z,100866.66
2023-03-27T17:53:16.167Z,100875.81
2023-03-27T17:56:18.668Z,100872.25
2023-03-27T17:59:20.931Z,100874.13
2023-03-27T18:02:22.332Z,100877.81
2023-03-27T18:05:23.730Z,100885.97
2023-03-27T18:08:25.182Z,100881.53
2023-03-27T18:11:26.578Z,100881.69
2023-03-27T18:14:27.933Z,100889.81
2023-03-27T18:17:29.340Z,100889.09
2023-03-27T18:20:30.812Z,100899.13
2023-03-27T18:23:32.821Z,100890.97
2023-03-27T18:26:34.182Z,100898.25
2023-03-27T18:29:36.135Z,100906.41
2023-03-27T18:32:38.331Z,100909.97
2023-03-27T18:35:42.541Z,100929.81
2023-03-27T18:38:44.286Z,100922.53
2023-03-27T18:41:45.785Z,100923.22
2023-03-27T18:44:48.004Z,100919.53
2023-03-27T18:47:49.376Z,100924.78
2023-03-27T18:50:57.873Z,100936.34
2023-03-27T18:53:59.357Z,100928.09
2023-03-27T18:57:00.940Z,100928.94
2023-03-27T19:00:02.629Z,100946.78
2023-03-27T19:03:04.072Z,100933.06
2023-03-27T19:06:06.875Z,100931.91
2023-03-27T19:09:08.251Z,100928.31
2023-03-27T19:12:10.514Z,100923.91
2023-03-27T19:15:30.710Z,100928.31
2023-03-27T19:18:50.554Z,100930.91
2023-03-27T19:22:21.227Z,100938.03
2023-03-27T19:25:39.144Z,100936.19
2023-03-27T19:28:40.576Z,100935.03
2023-03-27T19:31:41.957Z,100949.47
2023-03-27T19:34:43.442Z,100936.59
2023-03-27T19:37:44.778Z,100937.28
2023-03-27T19:40:46.172Z,100931.00
2023-03-27T19:43:47.517Z,100939.16
2023-03-27T19:46:48.936Z,100934.44
2023-03-27T19:49:50.364Z,100933.41
2023-03-27T19:53:05.169Z,100943.28
2023-03-27T19:56:09.310Z,100941.41
2023-03-27T19:59:17.772Z,100942.44
2023-03-27T20:02:27.136Z,100940.56
2023-03-27T20:05:29.525Z,100931.41
2023-03-27T20:08:34.048Z,100928.69
2023-03-27T20:11:35.719Z,100940.41
2023-03-27T20:14:37.161Z,100945.84
2023-03-27T20:17:38.564Z,100943.13
2023-03-27T20:20:40.621Z,100948.41
2023-03-27T20:23:43.143Z,100933.81
2023-03-27T20:26:57.108Z,100948.28
2023-03-27T20:30:01.868Z,100951.84
2023-03-27T20:33:03.725Z,100951.84
2023-03-27T20:36:05.298Z,100953.53
2023-03-27T20:39:07.855Z,100949.84
2023-03-27T20:42:14.943Z,100964.09
2023-03-27T20:45:19.268Z,100966.66
2023-03-27T20:48:21.787Z,100963.94
2023-03-27T20:51:24.395Z,100963.94
2023-03-27T20:54:27.244Z,100956.81
2023-03-27T20:57:30.262Z,100963.09
2023-03-27T21:00:31.816Z,100968.66
2023-03-27T21:03:34.900Z,100966.13
2023-03-27T21:06:36.623Z,100964.38
2023-03-27T21:09:38.408Z,100968.13
2023-03-27T21:12:40.741Z,100963.69
2023-03-27T21:15:42.235Z,100965.53
2023-03-27T21:18:43.625Z,100967.53
2023-03-27T21:21:45.072Z,100966.88
2023-03-27T21:24:46.454Z,100968.88
2023-03-27T21:27:48.738Z,100975.28
2023-03-27T21:30:50.121Z,100967.31
2023-03-27T21:33:51.473Z,100974.59
2023-03-27T21:36:52.952Z,100982.16
2023-03-27T21:39:54.420Z,100973.16
2023-03-27T21:42:55.870Z,100976.03
2023-03-27T21:46:00.016Z,100969.75
2023-03-27T21:49:01.668Z,100978.06
2023-03-27T21:52:03.045Z,100974.63
2023-03-27T21:55:04.593Z,100965.75
2023-03-27T21:58:06.294Z,100976.63
2023-03-27T22:01:08.030Z,100971.31
2023-03-27T22:04:09.591Z,100975.19
2023-03-27T22:07:11.007Z,100978.06
2023-03-27T22:10:12.529Z,100973.63
2023-03-27T22:13:13.964Z,100982.78
2023-03-27T22:16:16.627Z,100981.75
2023-03-27T22:19:18.272Z,100979.22
2023-03-27T22:22:19.652Z,100983.94
2023-03-27T22:25:21.207Z,100986.78
2023-03-27T22:28:22.655Z,100979.75
2023-03-27T22:31:24.250Z,100980.91
2023-03-27T22:34:27.780Z,100985.78
2023-03-27T22:37:29.169Z,100995.06
2023-03-27T22:40:30.576Z,100994.50
2023-03-27T22:43:32.068Z,101000.06
2023-03-27T22:46:33.598Z,101003.78
2023-03-27T22:49:36.194Z,101002.34
2023-03-27T22:52:37.553Z,101021.34
2023-03-27T22:55:39.024Z,101028.91
2023-03-27T22:58:40.406Z,101030.06
2023-03-27T23:01:41.854Z,101032.91
2023-03-27T23:04:43.250Z,101033.03
2023-03-27T23:07:44.683Z,101036.03
2023-03-27T23:10:46.381Z,101030.59
2023-03-27T23:13:47.790Z,101031.75
2023-03-27T23:16:49.244Z,101036.31
2023-03-27T23:19:50.790Z,101044.59
2023-03-27T23:22:52.211Z,101033.75
2023-03-27T23:25:53.949Z,101046.44
2023-03-27T23:28:55.343Z,101043.72
2023-03-27T23:31:57.158Z,101044.75
2023-03-27T23:34:58.570Z,101045.59
2023-03-27T23:37:59.952Z,101046.75
2023-03-27T23:41:01.772Z,101048.59
2023-03-27T23:44:03.209Z,101044.16
2023-03-27T23:47:04.733Z,101047.75
2023-03-27T23:50:06.351Z,101054.16
2023-03-27T23:53:07.738Z,101060.59
2023-03-27T23:56:09.467Z,101052.44
2023-03-27T23:59:10.864Z,101059.72
